createdAt,value
2022-11-05T00:03:19.397Z,9.01
2022-11-05T00:08:43.921Z,8.98
2022-11-05T00:14:07.020Z,8.94
2022-11-05T00:19:13.737Z,8.93
2022-11-05T00:24:38.533Z,8.90
2022-11-05T00:29:44.572Z,8.87
2022-11-05T00:34:51.990Z,8.87
2022-11-05T00:39:59.595Z,8.85
2022-11-05T00:45:07.076Z,8.85
2022-11-05T00:50:17.761Z,8.82
2022-11-05T00:55:26.674Z,8.79
2022-11-05T01:00:34.280Z,8.80
2022-11-05T01:05:46.232Z,8.78
2022-11-05T01:10:56.815Z,8.78
2022-11-05T01:16:09.065Z,8.76
2022-11-05T01:21:19.451Z,8.77
2022-11-05T01:26:52.998Z,8.80
2022-11-05T01:31:59.888Z,8.76
2022-11-05T01:37:06.004Z,8.75
2022-11-05T01:42:23.612Z,8.72
2022-11-05T01:47:56.629Z,8.71
2022-11-05T01:53:17.512Z,8.68
2022-11-05T01:58:29.547Z,8.68
2022-11-05T02:03:36.236Z,8.65
2022-11-05T02:08:56.747Z,8.62
2022-11-05T02:14:05.120Z,8.59
2022-11-05T02:19:55.508Z,8.59
2022-11-05T02:25:29.365Z,8.60
2022-11-05T02:30:48.066Z,8.57
2022-11-05T02:36:17.427Z,8.54
2022-11-05T02:41:31.935Z,8.57
2022-11-05T02:46:51.372Z,8.59
2022-11-05T02:52:01.096Z,8.60
2022-11-05T02:57:07.775Z,8.52
2022-11-05T03:02:15.843Z,8.50
2022-11-05T03:07:43.503Z,8.48
2022-11-05T03:14:02.959Z,8.51
2022-11-05T03:19:19.095Z,8.52
2022-11-05T03:24:29.744Z,8.50
2022-11-05T03:29:39.948Z,8.46
2022-11-05T03:34:51.999Z,8.47
2022-11-05T03:40:02.470Z,8.46
2022-11-05T03:45:17.195Z,8.43
2022-11-05T03:50:38.488Z,8.42
2022-11-05T03:55:54.211Z,8.42
2022-11-05T04:01:03.505Z,8.41
2022-11-05T04:06:30.074Z,8.47
2022-11-05T04:11:54.958Z,8.43
2022-11-05T04:17:10.198Z,8.41
2022-11-05T04:22:35.352Z,8.40
2022-11-05T04:27:41.492Z,8.37
2022-11-05T04:33:06.744Z,8.35
2022-11-05T04:38:18.652Z,8.33
2022-11-05T04:43:24.819Z,8.36
2022-11-05T04:48:30.976Z,8.37
2022-11-05T04:53:38.785Z,8.37
2022-11-05T04:58:45.610Z,8.36
2022-11-05T05:03:53.005Z,8.36
2022-11-05T05:09:00.555Z,8.34
2022-11-05T05:14:06.596Z,8.34
2022-11-05T05:19:12.901Z,8.39
2022-11-05T05:24:25.206Z,8.38
2022-11-05T05:29:31.309Z,8.35
2022-11-05T05:34:38.745Z,8.36
2022-11-05T05:39:48.138Z,8.37
2022-11-05T05:44:54.187Z,8.35
2022-11-05T05:50:00.469Z,8.33
2022-11-05T05:55:10.062Z,8.36
2022-11-05T06:00:17.115Z,8.35
2022-11-05T06:05:23.164Z,8.34
2022-11-05T06:10:30.612Z,8.33
2022-11-05T06:15:37.179Z,8.30
2022-11-05T06:20:43.365Z,8.34
2022-11-05T06:25:51.033Z,8.36
2022-11-05T06:30:57.270Z,8.37
2022-11-05T06:36:04.944Z,8.37
2022-11-05T06:41:12.912Z,8.39
2022-11-05T06:46:18.987Z,8.37
2022-11-05T06:51:25.829Z,8.39
2022-11-05T06:56:33.528Z,8.44
2022-11-05T07:01:39.852Z,8.46
2022-11-05T07:06:46.171Z,8.49
2022-11-05T07:11:53.603Z,8.50
2022-11-05T07:16:59.792Z,8.55
2022-11-05T07:22:06.891Z,8.58
2022-11-05T07:27:14.889Z,8.66
2022-11-05T07:32:21.249Z,8.67
2022-11-05T07:37:27.546Z,8.67
2022-11-05T07:42:36.956Z,8.72
2022-11-05T07:47:49.123Z,8.72
2022-11-05T07:52:55.561Z,8.74
2022-11-05T07:58:03.184Z,8.75
2022-11-05T08:03:14.249Z,8.80
2022-11-05T08:08:21.952Z,8.83
2022-11-05T08:13:29.679Z,8.85
2022-11-05T08:18:36.273Z,8.88
2022-11-05T08:23:43.324Z,8.92
2022-11-05T08:28:50.894Z,8.97
2022-11-05T08:34:01.363Z,8.99
2022-11-05T08:39:14.288Z,9.01
2022-11-05T08:44:24.472Z,9.04
2022-11-05T08:49:30.746Z,9.07
2022-11-05T08:54:37.190Z,9.14
2022-11-05T08:59:44.600Z,9.20
2022-11-05T09:04:52.013Z,9.21
2022-11-05T09:09:58.298Z,9.23
2022-11-05T09:15:06.797Z,9.24
2022-11-05T09:20:13.990Z,9.26
2022-11-05T09:25:20.183Z,9.29
2022-11-05T09:30:27.589Z,9.30
2022-11-05T09:35:33.895Z,9.33
2022-11-05T09:40:44.334Z,9.35
2022-11-05T09:45:57.478Z,9.37
2022-11-05T09:51:05.603Z,9.38
2022-11-05T09:56:25.462Z,9.41
2022-11-05T10:01:37.104Z,9.40
2022-11-05T10:06:59.179Z,9.38
2022-11-05T10:12:13.419Z,9.38
2022-11-05T10:17:27.222Z,9.41
2022-11-05T10:22:33.170Z,9.41
2022-11-05T10:27:40.274Z,9.41
2022-11-05T10:32:49.916Z,9.41
2022-11-05T10:37:55.957Z,9.38
2022-11-05T10:43:08.401Z,9.39
2022-11-05T10:48:45.156Z,9.39
2022-11-05T10:54:01.700Z,9.41
2022-11-05T10:59:22.199Z,9.42
2022-11-05T11:04:37.448Z,9.42
2022-11-05T11:09:51.246Z,9.45
2022-11-05T11:15:03.887Z,9.47
2022-11-05T11:20:29.338Z,9.49
2022-11-05T11:25:47.669Z,9.50
2022-11-05T11:31:04.004Z,9.53
2022-11-05T11:36:14.713Z,9.55
2022-11-05T11:41:30.664Z,9.55
2022-11-05T11:56:10.809Z,9.57
2022-11-05T12:02:08.052Z,9.58
2022-11-05T12:07:33.994Z,9.58
2022-11-05T12:12:51.150Z,9.58
2022-11-05T12:18:05.157Z,9.59
2022-11-05T12:23:32.347Z,9.61
2022-11-05T12:29:18.367Z,9.62
2022-11-05T12:34:44.316Z,9.65
2022-11-05T12:40:15.825Z,9.66
2022-11-05T12:45:40.807Z,9.65
2022-11-05T12:50:54.495Z,9.66
2022-11-05T12:56:11.282Z,9.68
2022-11-05T13:01:25.091Z,9.67
2022-11-05T13:06:43.012Z,9.68
2022-11-05T13:11:55.141Z,9.70
2022-11-05T13:17:09.719Z,9.69
2022-11-05T13:28:40.750Z,9.73
2022-11-05T13:33:50.522Z,9.71
2022-11-05T13:39:07.417Z,9.72
2022-11-05T13:44:43.998Z,9.73
2022-11-05T13:50:25.517Z,9.73
2022-11-05T13:55:58.906Z,9.72
2022-11-05T14:01:18.847Z,9.71
2022-11-05T14:06:29.462Z,9.73
2022-11-05T14:11:39.465Z,9.71
2022-11-05T14:16:54.361Z,9.68
2022-11-05T14:22:01.759Z,9.67
2022-11-05T14:27:52.558Z,9.69
2022-11-05T14:33:15.740Z,9.70
2022-11-05T14:38:26.450Z,9.69
2022-11-05T14:43:36.615Z,9.69
2022-11-05T14:48:50.147Z,9.68
2022-11-05T14:54:06.124Z,9.69
2022-11-05T14:59:37.026Z,9.68
2022-11-05T15:04:48.208Z,9.67
2022-11-05T15:10:07.142Z,9.66
2022-11-05T15:15:24.671Z,9.64
2022-11-05T15:20:40.701Z,9.63
2022-11-05T15:25:53.832Z,9.62
2022-11-05T15:31:04.465Z,9.61
2022-11-05T15:36:30.108Z,9.61
2022-11-05T15:41:38.674Z,9.64
2022-11-05T15:46:46.998Z,9.62
2022-11-05T15:51:55.910Z,9.61
2022-11-05T15:57:03.074Z,9.59
2022-11-05T16:02:33.754Z,9.58
2022-11-05T16:07:44.541Z,9.57
2022-11-05T16:12:59.626Z,9.55
2022-11-05T16:18:24.627Z,9.56
2022-11-05T16:23:47.194Z,9.54
2022-11-05T16:28:55.076Z,9.54
2022-11-05T16:34:02.711Z,9.53
2022-11-05T16:39:12.185Z,9.52
2022-11-05T16:44:20.361Z,9.52
2022-11-05T16:49:28.109Z,9.50
2022-11-05T16:54:36.674Z,9.48
2022-11-05T16:59:45.472Z,9.48
2022-11-05T17:04:54.303Z,9.46
2022-11-05T17:10:03.665Z,9.44
2022-11-05T17:15:21.467Z,9.43
2022-11-05T17:20:40.764Z,9.43
2022-11-05T17:25:53.173Z,9.42
2022-11-05T17:31:02.609Z,9.42
2022-11-05T17:36:15.683Z,9.40
2022-11-05T17:41:26.628Z,9.37
2022-11-05T17:46:34.357Z,9.36
2022-11-05T17:51:41.709Z,9.34
2022-11-05T17:56:50.305Z,9.32
2022-11-05T18:01:58.862Z,9.29
2022-11-05T18:07:09.698Z,9.29
2022-11-05T18:12:19.223Z,9.30
2022-11-05T18:17:26.200Z,9.27
2022-11-05T18:22:37.311Z,9.27
2022-11-05T18:27:47.338Z,9.28
2022-11-05T18:32:56.211Z,9.25
2022-11-05T18:38:06.239Z,9.24
2022-11-05T18:43:17.320Z,9.24
2022-11-05T18:48:25.212Z,9.23
2022-11-05T18:53:33.874Z,9.20
2022-11-05T18:58:45.356Z,9.22
2022-11-05T19:03:58.213Z,9.21
2022-11-05T19:09:12.777Z,9.19
2022-11-05T19:14:34.438Z,9.20
2022-11-05T19:19:42.214Z,9.18
2022-11-05T19:24:52.540Z,9.17
2022-11-05T19:30:02.450Z,9.18
2022-11-05T19:35:11.785Z,9.17
2022-11-05T19:40:20.133Z,9.15
2022-11-05T19:45:44.209Z,9.16
2022-11-05T19:50:52.308Z,9.16
2022-11-05T19:56:00.657Z,9.16
2022-11-05T20:01:11.783Z,9.14
2022-11-05T20:06:24.923Z,9.12
2022-11-05T20:11:32.861Z,9.10
2022-11-05T20:16:42.513Z,9.09
2022-11-05T20:21:51.622Z,9.09
2022-11-05T20:26:59.891Z,9.10
2022-11-05T20:32:09.580Z,9.09
2022-11-05T20:37:16.871Z,9.03
2022-11-05T20:42:25.180Z,9.04
2022-11-05T20:47:35.831Z,9.03
2022-11-05T20:52:44.422Z,9.02
2022-11-05T20:57:51.354Z,9.03
2022-11-05T21:03:01.678Z,9.03
2022-11-05T21:08:09.986Z,9.01
2022-11-05T21:13:18.468Z,8.98
2022-11-05T21:18:33.836Z,8.96
2022-11-05T21:23:42.983Z,8.95
2022-11-05T21:28:52.614Z,8.94
2022-11-05T21:34:01.071Z,8.92
2022-11-05T21:39:13.207Z,8.90
2022-11-05T21:44:20.912Z,8.86
2022-11-05T21:49:29.628Z,8.85
2022-11-05T21:54:54.067Z,8.81
2022-11-05T22:00:01.852Z,8.81
2022-11-05T22:05:15.322Z,8.80
2022-11-05T22:10:22.770Z,8.76
2022-11-05T22:15:30.169Z,8.71
2022-11-05T22:20:40.518Z,8.70
2022-11-05T22:25:47.324Z,8.67
2022-11-05T22:30:54.035Z,8.65
2022-11-05T22:36:02.045Z,8.62
2022-11-05T22:41:13.309Z,8.56
2022-11-05T22:46:22.819Z,8.53
2022-11-05T22:51:33.412Z,8.52
2022-11-05T22:56:43.189Z,8.42
2022-11-05T23:01:50.000Z,8.25
2022-11-05T23:07:15.509Z,8.16
2022-11-05T23:12:27.410Z,7.95
2022-11-05T23:17:51.399Z,8.12
2022-11-05T23:23:17.550Z,8.10
2022-11-05T23:28:24.343Z,7.76
2022-11-05T23:33:34.828Z,7.97
2022-11-05T23:38:42.742Z,7.96
2022-11-05T23:44:08.641Z,8.00
2022-11-05T23:49:15.160Z,7.99
2022-11-05T23:54:23.555Z,7.73
2022-11-05T23:59:29.828Z,7.82
